Stevinson, California
Current Conditions -  °F | °C
As of 12:45 PM on Thursday 23 Oct 2014 (Local Time) from KMER Reporting Station
Clear Clear  
Wind Chill: 77°   Ceiling: Unl
Heat Index: 78°   Visibility: 10mi
Dew Point: 48°   Wind: 8mph
Humidity: 36%   Direction: 310°NW
Pressure: 30.04"   Gusts: NA
Location:  37.33°N, 120.85°W
Report Text: KMER 231945Z 31007KT 10SM SKC 25/09 A3004
Loading
Personal Weather Stations






























Interactive Weather Map
Tropical Storm Tracking
New forecast layout! Learn more

10-Day Weather Forecast

Advertisements
Track Severe Weather on mobile